Kaiser — NHJK — position and weather

sailwx.info

Track history (hours):
 
Tides and Currents Weather Stations Pressure Air Temp Water Temp Dewpoint Dewpoint Depression Visibility Wind Speed Wind Dir Waves Ship Positions

Kaiser

Last reported at 2015-Feb-27 05:31 UTC. Time now 2015-Feb-27 06:05 UTC.
Position N 32°42' W 117°11'.

Length 207 m; draft 8.5 m.

Type: Tanker. MMSI: 303849000.

Date/timePositionNaut miles runAvg speedWind from/ knotsBaromVisibWave heightAir tempDewpointWater temp
2015-Feb-27 05:31N 32°42' W 117°11'0 0.0
2015-Feb-27 04:22N 32°42' W 117°11'0 0.0
2015-Feb-27 03:31N 32°42' W 117°11'0 0.0
2015-Feb-27 02:13N 32°42' W 117°11'0 0.0
2015-Feb-27 01:22N 32°42' W 117°11'0 0.1
2015-Feb-27 00:34N 32°42' W 117°11'6 6.2
2015-Feb-26 23:33N 32°36' W 117°13'1111.3
2015-Feb-26 22:33N 32°31' W 117°25'8 8.2
2015-Feb-26 21:33N 32°30' W 117°35'4 3.7
2015-Feb-26 20:28N 32°33' W 117°36'1111.8
2015-Feb-26 19:33N 32°36' W 117°49'1513.3
2015-Feb-26 18:23N 32°36' W 118°07'1113.3
2015-Feb-26 17:33N 32°36' W 118°20'1413.1
2015-Feb-26 16:31N 32°36' W 118°36'1313.0
2015-Feb-26 15:33N 32°36' W 118°51'3 3.0
2015-Feb-26 14:33N 32°37' W 118°55'8 8.0
2015-Feb-26 13:33N 32°36' W 118°45'4 4.2
2015-Feb-26 12:33N 32°36' W 118°50'7 6.6
2015-Feb-26 11:33N 32°36' W 118°43'3 2.8
2015-Feb-26 10:32N 32°36' W 118°46'6 6.7
2015-Feb-26 09:33N 32°36' W 118°54'4 4.2
2015-Feb-26 08:32N 32°37' W 118°59'4 3.7
2015-Feb-26 07:33N 32°36' W 118°54'3 3.4
2015-Feb-26 06:33N 32°36' W 118°50'6 6.5
2015-Feb-26 05:33N 32°36' W 118°43'6 6.4
2015-Feb-26 04:33N 32°37' W 118°35'3 2.7
2015-Feb-26 03:33N 32°36' W 118°38'7 6.7
2015-Feb-26 02:33N 32°35' W 118°46'7 6.5
2015-Feb-26 01:32N 32°36' W 118°54'3 2.8
2015-Feb-26 00:26N 32°36' W 118°57'5 6.3
2015-Feb-25 23:33N 32°36' W 118°51'6 6.4
2015-Feb-25 22:33N 32°36' W 118°43'8 6.4
2015-Feb-25 21:22N 32°36' W 118°34'2 2.8
2015-Feb-25 20:32N 32°36' W 118°37'7 6.8
2015-Feb-25 19:32N 32°36' W 118°45'7 6.8
2015-Feb-25 18:29N 32°36' W 118°53'1 0.5
2015-Feb-25 17:25N 32°36' W 118°54'5 6.3
2015-Feb-25 16:33N 32°36' W 118°47'7 6.5
2015-Feb-25 15:33N 32°36' W 118°40'6 6.5
2015-Feb-25 14:33N 32°36' W 118°32'1 0.8
2015-Feb-25 13:33N 32°36' W 118°33'7 6.6
2015-Feb-25 12:34N 32°36' W 118°40'7 6.8
2015-Feb-25 11:33N 32°36' W 118°48'7 6.7
2015-Feb-25 10:33N 32°36' W 118°56'1 0.6
2015-Feb-25 09:33N 32°37' W 118°56'6 6.4
2015-Feb-25 08:33N 32°37' W 118°49'7 6.2
2015-Feb-25 07:30N 32°36' W 118°41'6 6.1
2015-Feb-25 06:33N 32°36' W 118°34'2 2.1
2015-Feb-25 05:33N 32°36' W 118°36'7 6.9
2015-Feb-25 04:33N 32°36' W 118°45'7 6.8
2015-Feb-25 03:29N 32°36' W 118°53'5 5.8
2015-Feb-25 02:34N 32°36' W 118°60'7 6.3
2015-Feb-25 01:28N 32°36' W 118°51'6 6.5
2015-Feb-25 00:33N 32°36' W 118°44'6 6.1
2015-Feb-24 23:33N 32°36' W 118°37'6 6.1
2015-Feb-24 22:33N 32°36' W 118°30'6 6.0
2015-Feb-24 21:33N 32°36' W 118°23'9 0.7
2015-Feb-24 07:31N 32°36' W 118°12'1614.5
2015-Feb-24 06:26N 32°36' W 117°53'1314.5
2015-Feb-24 05:34N 32°36' W 117°38'1414.1
2015-Feb-24 04:34N 32°36' W 117°21'1 1.2
2015-Feb-24 03:31N 32°37' W 117°21'1 1.5
2015-Feb-24 02:34N 32°36' W 117°20'6 6.1
2015-Feb-24 01:34N 32°39' W 117°13'3 3.2
2015-Feb-24 00:32N 32°42' W 117°14'0 0.0
2015-Feb-23 23:29N 32°42' W 117°14'0 0.0
2015-Feb-23 22:29N 32°42' W 117°14'0 0.0
2015-Feb-23 21:26N 32°42' W 117°14'0 0.0
2015-Feb-23 20:32N 32°42' W 117°14'0 0.0
2015-Feb-23 19:32N 32°42' W 117°14'0 0.0
2015-Feb-23 18:32N 32°42' W 117°14'0 0.0
2015-Feb-23 17:32N 32°42' W 117°14'3 2.8
2015-Feb-23 16:33N 32°43' W 117°11'0 0.0
2015-Feb-21 16:33N 32°42' W 117°11'0 0.0
2015-Feb-21 15:33N 32°42' W 117°11'0 0.0
2015-Feb-21 14:33N 32°42' W 117°11'0 0.0
2015-Feb-21 13:33N 32°42' W 117°11'0 0.0
2015-Feb-21 12:33N 32°42' W 117°11'0 0.0
2015-Feb-21 11:33N 32°42' W 117°11'0 0.0
2015-Feb-21 10:33N 32°42' W 117°11'0 0.0
2015-Feb-21 09:30N 32°42' W 117°11'0 0.0
2015-Feb-21 08:33N 32°42' W 117°11'0 0.0
2015-Feb-21 07:33N 32°42' W 117°11'0 0.0
2015-Feb-21 06:33N 32°42' W 117°11'0 0.0
2015-Feb-21 05:33N 32°42' W 117°11'0 0.0
2015-Feb-21 04:33N 32°42' W 117°11'0 0.0
2015-Feb-21 03:33N 32°42' W 117°11'0 0.0
2015-Feb-21 02:33N 32°42' W 117°11'0 0.0
2015-Feb-21 01:33N 32°42' W 117°11'0 0.0
2015-Feb-21 00:33N 32°42' W 117°11'1 0.5
2015-Feb-20 23:33N 32°43' W 117°11'7 7.0
2015-Feb-20 22:33N 32°36' W 117°13'10 9.8
2015-Feb-20 21:33N 32°35' W 117°25'1010.1
2015-Feb-20 20:33N 32°36' W 117°37'7 6.8
2015-Feb-20 19:33N 32°36' W 117°45'11 9.7
2015-Feb-20 18:28N 32°36' W 117°57'9 9.6
2015-Feb-20 17:31N 32°36' W 118°08'1111.2
2015-Feb-20 16:33N 32°37' W 118°21'1413.3
2015-Feb-20 15:31N 32°37' W 118°37'1313.0
2015-Feb-20 14:33N 32°37' W 118°52'1312.9
2015-Feb-20 13:32N 32°36' W 119°07'1111.0
2015-Feb-20 12:33N 32°36' W 119°20'7 6.9
2015-Feb-20 11:33N 32°36' W 119°12'9 9.4
2015-Feb-20 10:33N 32°36' W 119°01'10 9.3
2015-Feb-20 09:28N 32°36' W 118°49'9 9.1
2015-Feb-20 08:28N 32°36' W 118°38'8 8.7
2015-Feb-20 07:33N 32°36' W 118°29'9 8.8
2015-Feb-20 06:33N 32°36' W 118°18'9 9.0
2015-Feb-20 05:33N 32°36' W 118°08'10 8.9
2015-Feb-20 04:24N 32°36' W 117°55'7 8.9
2015-Feb-20 03:33N 32°36' W 117°46'9 8.7
2015-Feb-20 02:33N 32°36' W 117°36'9 8.6
2015-Feb-20 01:33N 32°36' W 117°26'9 8.8
2015-Feb-20 00:29N 32°36' W 117°15'3 3.5
2015-Feb-19 23:31N 32°38' W 117°11'0 0.0
2015-Feb-19 22:31N 32°38' W 117°11'0 0.1
2015-Feb-19 21:31N 32°38' W 117°11'0 0.0
2015-Feb-19 20:34N 32°38' W 117°11'0 0.0
2015-Feb-19 19:34N 32°38' W 117°11'0 0.1
2015-Feb-19 18:33N 32°38' W 117°12'0 0.1
2015-Feb-19 17:33N 32°38' W 117°12'1 0.9
2015-Feb-19 16:34N 32°37' W 117°12'6 6.4
2015-Feb-19 15:33N 32°33' W 117°18'8 7.9
2015-Feb-19 14:33N 32°31' W 117°27'2 2.3
2015-Feb-19 13:33N 32°31' W 117°29'5 5.0
2015-Feb-19 12:33N 32°30' W 117°23'8 7.7
2015-Feb-19 11:33N 32°30' W 117°32'2 1.9
2015-Feb-19 10:33N 32°29' W 117°34'7 7.3
2015-Feb-19 09:33N 32°27' W 117°26'1 1.5
2015-Feb-19 08:33N 32°29' W 117°25'8 7.9
2015-Feb-19 07:33N 32°29' W 117°34'1 0.6
2015-Feb-19 06:33N 32°30' W 117°34'7 7.2
2015-Feb-19 05:33N 32°30' W 117°26'1 1.4
2015-Feb-19 04:33N 32°30' W 117°27'8 7.7
2015-Feb-19 03:33N 32°32' W 117°36'8 7.9
2015-Feb-19 02:33N 32°36' W 117°44'8 7.9
2015-Feb-19 01:34N 32°36' W 117°54'8 7.8
2015-Feb-19 00:33N 32°35' W 118°03'1110.7
2015-Feb-18 23:33N 32°36' W 118°16'1413.6
2015-Feb-18 22:33N 32°36' W 118°32'6 6.0
2015-Feb-18 21:34N 32°37' W 118°39'1312.7
2015-Feb-18 20:33N 32°36' W 118°24'1313.0
2015-Feb-18 19:33N 32°36' W 118°08'1212.3
2015-Feb-18 18:33N 32°36' W 117°54'1111.0
2015-Feb-18 17:33N 32°36' W 117°41'7 6.7
2015-Feb-18 16:34N 32°32' W 117°35'3 3.4
2015-Feb-18 15:33N 32°29' W 117°37'5 4.8
2015-Feb-18 14:33N 32°29' W 117°31'6 6.1
2015-Feb-18 13:31N 32°29' W 117°23'7 7.4
2015-Feb-18 12:34N 32°29' W 117°32'3 2.6
2015-Feb-18 11:33N 32°29' W 117°35'7 7.1
2015-Feb-18 10:33N 32°29' W 117°27'1 1.2
2015-Feb-18 09:33N 32°29' W 117°25'7 7.5
2015-Feb-18 08:34N 32°29' W 117°34'1 1.4
2015-Feb-18 07:33N 32°29' W 117°32'7 7.0
2015-Feb-18 06:33N 32°29' W 117°24'3 3.3
2015-Feb-18 05:33N 32°29' W 117°28'8 7.6
2015-Feb-18 04:33N 32°29' W 117°37'4 4.5
2015-Feb-18 03:33N 32°30' W 117°32'7 6.8
2015-Feb-18 02:33N 32°30' W 117°24'6 6.4
2015-Feb-18 01:33N 32°35' W 117°19'9 9.5
2015-Feb-18 00:33N 32°36' W 117°30'5 4.6
2015-Feb-17 23:33N 32°33' W 117°25'8 7.8
2015-Feb-17 22:33N 32°36' W 117°16'7 7.2
2015-Feb-17 21:33N 32°43' W 117°13'2 2.0
2015-Feb-17 20:31N 32°42' W 117°11'0 0.0
2015-Feb-17 19:31N 32°42' W 117°11'0 0.0
2015-Feb-17 17:31N 32°42' W 117°11'0 0.0
2015-Feb-17 16:31N 32°42' W 117°11'0 0.0
2015-Feb-17 15:31N 32°42' W 117°11'0 0.0
2015-Feb-17 14:31N 32°42' W 117°11'0 0.0
2015-Feb-17 13:31N 32°42' W 117°11'0 0.0
2015-Feb-17 12:31N 32°42' W 117°11'0 0.0
2015-Feb-17 11:31N 32°42' W 117°11'0 0.0
2015-Feb-17 10:31N 32°42' W 117°11'0 0.0
2015-Feb-17 09:31N 32°42' W 117°11'0 0.0
2015-Feb-17 08:31N 32°42' W 117°11'0 0.0
2015-Feb-17 07:31N 32°42' W 117°11'0 0.0
2015-Feb-17 06:28N 32°42' W 117°11'0 0.0
2015-Feb-17 05:31N 32°42' W 117°11'  
Track history (hours):
 
Tides and Currents Weather Stations Pressure Air Temp Water Temp Dewpoint Dewpoint Depression Visibility Wind Speed Wind Dir Waves Ship Positions

Kaiser

Last reported at 2015-Feb-27 05:31 UTC. Time now 2015-Feb-27 06:05 UTC.
Position N 32°42' W 117°11'.

Length 207 m; draft 8.5 m.

Type: Tanker. MMSI: 303849000.

Date/timePositionNaut miles runAvg speedWind from/ knotsBaromVisibWave heightAir tempDewpointWater temp
2015-Feb-27 05:31N 32°42' W 117°11'0 0.0
2015-Feb-27 04:22N 32°42' W 117°11'0 0.0
2015-Feb-27 03:31N 32°42' W 117°11'0 0.0
2015-Feb-27 02:13N 32°42' W 117°11'0 0.0
2015-Feb-27 01:22N 32°42' W 117°11'0 0.1
2015-Feb-27 00:34N 32°42' W 117°11'6 6.2
2015-Feb-26 23:33N 32°36' W 117°13'1111.3
2015-Feb-26 22:33N 32°31' W 117°25'8 8.2
2015-Feb-26 21:33N 32°30' W 117°35'4 3.7
2015-Feb-26 20:28N 32°33' W 117°36'1111.8
2015-Feb-26 19:33N 32°36' W 117°49'1513.3
2015-Feb-26 18:23N 32°36' W 118°07'1113.3
2015-Feb-26 17:33N 32°36' W 118°20'1413.1
2015-Feb-26 16:31N 32°36' W 118°36'1313.0
2015-Feb-26 15:33N 32°36' W 118°51'3 3.0
2015-Feb-26 14:33N 32°37' W 118°55'8 8.0
2015-Feb-26 13:33N 32°36' W 118°45'4 4.2
2015-Feb-26 12:33N 32°36' W 118°50'7 6.6
2015-Feb-26 11:33N 32°36' W 118°43'3 2.8
2015-Feb-26 10:32N 32°36' W 118°46'6 6.7
2015-Feb-26 09:33N 32°36' W 118°54'4 4.2
2015-Feb-26 08:32N 32°37' W 118°59'4 3.7
2015-Feb-26 07:33N 32°36' W 118°54'3 3.4
2015-Feb-26 06:33N 32°36' W 118°50'6 6.5
2015-Feb-26 05:33N 32°36' W 118°43'6 6.4
2015-Feb-26 04:33N 32°37' W 118°35'3 2.7
2015-Feb-26 03:33N 32°36' W 118°38'7 6.7
2015-Feb-26 02:33N 32°35' W 118°46'7 6.5
2015-Feb-26 01:32N 32°36' W 118°54'3 2.8
2015-Feb-26 00:26N 32°36' W 118°57'5 6.3
2015-Feb-25 23:33N 32°36' W 118°51'6 6.4
2015-Feb-25 22:33N 32°36' W 118°43'8 6.4
2015-Feb-25 21:22N 32°36' W 118°34'2 2.8
2015-Feb-25 20:32N 32°36' W 118°37'7 6.8
2015-Feb-25 19:32N 32°36' W 118°45'7 6.8
2015-Feb-25 18:29N 32°36' W 118°53'1 0.5
2015-Feb-25 17:25N 32°36' W 118°54'5 6.3
2015-Feb-25 16:33N 32°36' W 118°47'7 6.5
2015-Feb-25 15:33N 32°36' W 118°40'6 6.5
2015-Feb-25 14:33N 32°36' W 118°32'1 0.8
2015-Feb-25 13:33N 32°36' W 118°33'7 6.6
2015-Feb-25 12:34N 32°36' W 118°40'7 6.8
2015-Feb-25 11:33N 32°36' W 118°48'7 6.7
2015-Feb-25 10:33N 32°36' W 118°56'1 0.6
2015-Feb-25 09:33N 32°37' W 118°56'6 6.4
2015-Feb-25 08:33N 32°37' W 118°49'7 6.2
2015-Feb-25 07:30N 32°36' W 118°41'6 6.1
2015-Feb-25 06:33N 32°36' W 118°34'2 2.1
2015-Feb-25 05:33N 32°36' W 118°36'7 6.9
2015-Feb-25 04:33N 32°36' W 118°45'7 6.8
2015-Feb-25 03:29N 32°36' W 118°53'5 5.8
2015-Feb-25 02:34N 32°36' W 118°60'7 6.3
2015-Feb-25 01:28N 32°36' W 118°51'6 6.5
2015-Feb-25 00:33N 32°36' W 118°44'6 6.1
2015-Feb-24 23:33N 32°36' W 118°37'6 6.1
2015-Feb-24 22:33N 32°36' W 118°30'6 6.0
2015-Feb-24 21:33N 32°36' W 118°23'9 0.7
2015-Feb-24 07:31N 32°36' W 118°12'1614.5
2015-Feb-24 06:26N 32°36' W 117°53'1314.5
2015-Feb-24 05:34N 32°36' W 117°38'1414.1
2015-Feb-24 04:34N 32°36' W 117°21'1 1.2
2015-Feb-24 03:31N 32°37' W 117°21'1 1.5
2015-Feb-24 02:34N 32°36' W 117°20'6 6.1
2015-Feb-24 01:34N 32°39' W 117°13'3 3.2
2015-Feb-24 00:32N 32°42' W 117°14'0 0.0
2015-Feb-23 23:29N 32°42' W 117°14'0 0.0
2015-Feb-23 22:29N 32°42' W 117°14'0 0.0
2015-Feb-23 21:26N 32°42' W 117°14'0 0.0
2015-Feb-23 20:32N 32°42' W 117°14'0 0.0
2015-Feb-23 19:32N 32°42' W 117°14'0 0.0
2015-Feb-23 18:32N 32°42' W 117°14'0 0.0
2015-Feb-23 17:32N 32°42' W 117°14'3 2.8
2015-Feb-23 16:33N 32°43' W 117°11'0 0.0
2015-Feb-21 16:33N 32°42' W 117°11'0 0.0
2015-Feb-21 15:33N 32°42' W 117°11'0 0.0
2015-Feb-21 14:33N 32°42' W 117°11'0 0.0
2015-Feb-21 13:33N 32°42' W 117°11'0 0.0
2015-Feb-21 12:33N 32°42' W 117°11'0 0.0
2015-Feb-21 11:33N 32°42' W 117°11'0 0.0
2015-Feb-21 10:33N 32°42' W 117°11'0 0.0
2015-Feb-21 09:30N 32°42' W 117°11'0 0.0
2015-Feb-21 08:33N 32°42' W 117°11'0 0.0
2015-Feb-21 07:33N 32°42' W 117°11'0 0.0
2015-Feb-21 06:33N 32°42' W 117°11'0 0.0
2015-Feb-21 05:33N 32°42' W 117°11'0 0.0
2015-Feb-21 04:33N 32°42' W 117°11'0 0.0
2015-Feb-21 03:33N 32°42' W 117°11'0 0.0
2015-Feb-21 02:33N 32°42' W 117°11'0 0.0
2015-Feb-21 01:33N 32°42' W 117°11'0 0.0
2015-Feb-21 00:33N 32°42' W 117°11'1 0.5
2015-Feb-20 23:33N 32°43' W 117°11'7 7.0
2015-Feb-20 22:33N 32°36' W 117°13'10 9.8
2015-Feb-20 21:33N 32°35' W 117°25'1010.1
2015-Feb-20 20:33N 32°36' W 117°37'7 6.8
2015-Feb-20 19:33N 32°36' W 117°45'11 9.7
2015-Feb-20 18:28N 32°36' W 117°57'9 9.6
2015-Feb-20 17:31N 32°36' W 118°08'1111.2
2015-Feb-20 16:33N 32°37' W 118°21'1413.3
2015-Feb-20 15:31N 32°37' W 118°37'1313.0
2015-Feb-20 14:33N 32°37' W 118°52'1312.9
2015-Feb-20 13:32N 32°36' W 119°07'1111.0
2015-Feb-20 12:33N 32°36' W 119°20'7 6.9
2015-Feb-20 11:33N 32°36' W 119°12'9 9.4
2015-Feb-20 10:33N 32°36' W 119°01'10 9.3
2015-Feb-20 09:28N 32°36' W 118°49'9 9.1
2015-Feb-20 08:28N 32°36' W 118°38'8 8.7
2015-Feb-20 07:33N 32°36' W 118°29'9 8.8
2015-Feb-20 06:33N 32°36' W 118°18'9 9.0
2015-Feb-20 05:33N 32°36' W 118°08'10 8.9
2015-Feb-20 04:24N 32°36' W 117°55'7 8.9
2015-Feb-20 03:33N 32°36' W 117°46'9 8.7
2015-Feb-20 02:33N 32°36' W 117°36'9 8.6
2015-Feb-20 01:33N 32°36' W 117°26'9 8.8
2015-Feb-20 00:29N 32°36' W 117°15'3 3.5
2015-Feb-19 23:31N 32°38' W 117°11'0 0.0
2015-Feb-19 22:31N 32°38' W 117°11'0 0.1
2015-Feb-19 21:31N 32°38' W 117°11'0 0.0
2015-Feb-19 20:34N 32°38' W 117°11'0 0.0
2015-Feb-19 19:34N 32°38' W 117°11'0 0.1
2015-Feb-19 18:33N 32°38' W 117°12'0 0.1
2015-Feb-19 17:33N 32°38' W 117°12'1 0.9
2015-Feb-19 16:34N 32°37' W 117°12'6 6.4
2015-Feb-19 15:33N 32°33' W 117°18'8 7.9
2015-Feb-19 14:33N 32°31' W 117°27'2 2.3
2015-Feb-19 13:33N 32°31' W 117°29'5 5.0
2015-Feb-19 12:33N 32°30' W 117°23'8 7.7
2015-Feb-19 11:33N 32°30' W 117°32'2 1.9
2015-Feb-19 10:33N 32°29' W 117°34'7 7.3
2015-Feb-19 09:33N 32°27' W 117°26'1 1.5
2015-Feb-19 08:33N 32°29' W 117°25'8 7.9
2015-Feb-19 07:33N 32°29' W 117°34'1 0.6
2015-Feb-19 06:33N 32°30' W 117°34'7 7.2
2015-Feb-19 05:33N 32°30' W 117°26'1 1.4
2015-Feb-19 04:33N 32°30' W 117°27'8 7.7
2015-Feb-19 03:33N 32°32' W 117°36'8 7.9
2015-Feb-19 02:33N 32°36' W 117°44'8 7.9
2015-Feb-19 01:34N 32°36' W 117°54'8 7.8
2015-Feb-19 00:33N 32°35' W 118°03'1110.7
2015-Feb-18 23:33N 32°36' W 118°16'1413.6
2015-Feb-18 22:33N 32°36' W 118°32'6 6.0
2015-Feb-18 21:34N 32°37' W 118°39'1312.7
2015-Feb-18 20:33N 32°36' W 118°24'1313.0
2015-Feb-18 19:33N 32°36' W 118°08'1212.3
2015-Feb-18 18:33N 32°36' W 117°54'1111.0
2015-Feb-18 17:33N 32°36' W 117°41'7 6.7
2015-Feb-18 16:34N 32°32' W 117°35'3 3.4
2015-Feb-18 15:33N 32°29' W 117°37'5 4.8
2015-Feb-18 14:33N 32°29' W 117°31'6 6.1
2015-Feb-18 13:31N 32°29' W 117°23'7 7.4
2015-Feb-18 12:34N 32°29' W 117°32'3 2.6
2015-Feb-18 11:33N 32°29' W 117°35'7 7.1
2015-Feb-18 10:33N 32°29' W 117°27'1 1.2
2015-Feb-18 09:33N 32°29' W 117°25'7 7.5
2015-Feb-18 08:34N 32°29' W 117°34'1 1.4
2015-Feb-18 07:33N 32°29' W 117°32'7 7.0
2015-Feb-18 06:33N 32°29' W 117°24'3 3.3
2015-Feb-18 05:33N 32°29' W 117°28'8 7.6
2015-Feb-18 04:33N 32°29' W 117°37'4 4.5
2015-Feb-18 03:33N 32°30' W 117°32'7 6.8
2015-Feb-18 02:33N 32°30' W 117°24'6 6.4
2015-Feb-18 01:33N 32°35' W 117°19'9 9.5
2015-Feb-18 00:33N 32°36' W 117°30'5 4.6
2015-Feb-17 23:33N 32°33' W 117°25'8 7.8
2015-Feb-17 22:33N 32°36' W 117°16'7 7.2
2015-Feb-17 21:33N 32°43' W 117°13'2 2.0
2015-Feb-17 20:31N 32°42' W 117°11'0 0.0
2015-Feb-17 19:31N 32°42' W 117°11'0 0.0
2015-Feb-17 17:31N 32°42' W 117°11'0 0.0
2015-Feb-17 16:31N 32°42' W 117°11'0 0.0
2015-Feb-17 15:31N 32°42' W 117°11'0 0.0
2015-Feb-17 14:31N 32°42' W 117°11'0 0.0
2015-Feb-17 13:31N 32°42' W 117°11'0 0.0
2015-Feb-17 12:31N 32°42' W 117°11'0 0.0
2015-Feb-17 11:31N 32°42' W 117°11'0 0.0
2015-Feb-17 10:31N 32°42' W 117°11'0 0.0
2015-Feb-17 09:31N 32°42' W 117°11'0 0.0
2015-Feb-17 08:31N 32°42' W 117°11'0 0.0
2015-Feb-17 07:31N 32°42' W 117°11'0 0.0
2015-Feb-17 06:28N 32°42' W 117°11'0 0.0
2015-Feb-17 05:31N 32°42' W 117°11'  

Dump ship's entire track history